SBOSBO SKG / LGTS
Speedbird OnlineSpeedbird Online SKG / LGTS

Thessaloniki Macedonia International Airport
08:56 4.7°C

Location Thessaloniki, Greece
Latitude: 40.51969909667969
Longitude: 22.97089958190918
Web Wikipedia
Altitude 7 Meter / 22 Feet
Distance 2,131 KM / 1,324 Miles
from London.
Time Zone UTC +2 hours (Europe/Athens)
Codes IATA: SKG
ICAO: LGTS
Currency £1 equals EUR 1.14
Runways
RunwayLength (m)Surface
103440Asphalt
162410Asphalt
283440Asphalt
342410Asphalt
Radio
TypeDescriptionFrequency
A/GRDO563.7
APPAPP120.8
ATISATIS127.55
CLDCLNC DEL118.05
GNDGND121.7
TWRTWR118.1
Live ATC
METAR LGTS 290620Z VRB02KT 9999 FEW030 01/M01 Q1020 NOSIG
TAF TAF LGTS 290500Z 2906/3006 34012KT 9999 FEW030
Weather As Of 29 Jan 2023 08:56
Description Overcast clouds
Wind 8 km/h from North (351°)
Cloud Cover 100%
Precipitation Rain: none, Snow: none
Sunrise 07:40
Sunset 17:41
Lounges Manolis Andronikos Skyserv Lounge , Main Terminal
Rotations During the last 90 days there were
1 flights from LGW
1 flights to LGW



Support Speedbird Online

© 2017-2023 Speedbird Online